sensor_id;sensor_type;location;lat;lon;timestamp;temperature;humidity
52517;DHT22;59374;53.210;5.726;2022-07-11T00:01:41;15.30;99.90
52517;DHT22;59374;53.210;5.726;2022-07-11T00:04:07;15.30;99.90
52517;DHT22;59374;53.210;5.726;2022-07-11T00:06:33;15.30;99.90
52517;DHT22;59374;53.210;5.726;2022-07-11T00:08:58;15.30;99.90
52517;DHT22;59374;53.210;5.726;2022-07-11T00:11:24;15.30;99.90
52517;DHT22;59374;53.210;5.726;2022-07-11T00:13:49;15.30;99.90
52517;DHT22;59374;53.210;5.726;2022-07-11T00:16:15;15.30;99.90
52517;DHT22;59374;53.210;5.726;2022-07-11T00:18:41;15.30;99.90
52517;DHT22;59374;53.210;5.726;2022-07-11T00:21:06;15.30;99.90
52517;DHT22;59374;53.210;5.726;2022-07-11T00:23:32;15.30;99.90
52517;DHT22;59374;53.210;5.726;2022-07-11T00:25:57;15.30;99.90
52517;DHT22;59374;53.210;5.726;2022-07-11T00:28:23;15.40;99.90
52517;DHT22;59374;53.210;5.726;2022-07-11T00:30:48;15.40;99.90
52517;DHT22;59374;53.210;5.726;2022-07-11T00:33:14;15.30;99.90
52517;DHT22;59374;53.210;5.726;2022-07-11T00:35:39;15.40;99.90
52517;DHT22;59374;53.210;5.726;2022-07-11T00:38:05;15.40;99.90
52517;DHT22;59374;53.210;5.726;2022-07-11T00:40:30;15.40;99.90
52517;DHT22;59374;53.210;5.726;2022-07-11T00:42:56;15.40;99.90
52517;DHT22;59374;53.210;5.726;2022-07-11T00:45:21;15.40;99.90
52517;DHT22;59374;53.210;5.726;2022-07-11T00:47:47;15.40;99.90
52517;DHT22;59374;53.210;5.726;2022-07-11T00:50:13;15.40;99.90
52517;DHT22;59374;53.210;5.726;2022-07-11T00:52:39;15.40;99.90
52517;DHT22;59374;53.210;5.726;2022-07-11T00:55:06;15.40;99.90
52517;DHT22;59374;53.210;5.726;2022-07-11T00:57:32;15.40;99.90
52517;DHT22;59374;53.210;5.726;2022-07-11T00:59:58;15.40;99.90
52517;DHT22;59374;53.210;5.726;2022-07-11T01:02:24;15.40;99.90
52517;DHT22;59374;53.210;5.726;2022-07-11T01:04:49;15.30;99.90
52517;DHT22;59374;53.210;5.726;2022-07-11T01:07:15;15.30;99.90
52517;DHT22;59374;53.210;5.726;2022-07-11T01:09:40;15.30;99.90
52517;DHT22;59374;53.210;5.726;2022-07-11T01:12:06;15.40;99.90
52517;DHT22;59374;53.210;5.726;2022-07-11T01:14:32;15.30;99.90
52517;DHT22;59374;53.210;5.726;2022-07-11T01:16:57;15.30;99.90
52517;DHT22;59374;53.210;5.726;2022-07-11T01:19:23;15.30;99.90
52517;DHT22;59374;53.210;5.726;2022-07-11T01:21:49;15.30;99.90
52517;DHT22;59374;53.210;5.726;2022-07-11T01:24:15;15.30;99.90
52517;DHT22;59374;53.210;5.726;2022-07-11T01:26:40;15.30;99.90
52517;DHT22;59374;53.210;5.726;2022-07-11T01:29:08;15.20;99.90
52517;DHT22;59374;53.210;5.726;2022-07-11T01:31:34;15.20;99.90
52517;DHT22;59374;53.210;5.726;2022-07-11T01:34:00;15.20;99.90
52517;DHT22;59374;53.210;5.726;2022-07-11T01:36:25;15.20;99.90
52517;DHT22;59374;53.210;5.726;2022-07-11T01:38:51;15.20;99.90
52517;DHT22;59374;53.210;5.726;2022-07-11T01:41:16;15.10;99.90
52517;DHT22;59374;53.210;5.726;2022-07-11T01:43:42;15.10;99.90
52517;DHT22;59374;53.210;5.726;2022-07-11T01:46:08;15.10;99.90
52517;DHT22;59374;53.210;5.726;2022-07-11T01:48:33;15.10;99.90
52517;DHT22;59374;53.210;5.726;2022-07-11T01:50:59;15.10;99.90
52517;DHT22;59374;53.210;5.726;2022-07-11T01:53:24;15.20;99.90
52517;DHT22;59374;53.210;5.726;2022-07-11T01:55:50;15.20;99.90
52517;DHT22;59374;53.210;5.726;2022-07-11T01:58:16;15.20;99.90
52517;DHT22;59374;53.210;5.726;2022-07-11T02:00:41;15.20;99.90
52517;DHT22;59374;53.210;5.726;2022-07-11T02:03:08;15.20;99.90
52517;DHT22;59374;53.210;5.726;2022-07-11T02:05:33;15.20;99.90
52517;DHT22;59374;53.210;5.726;2022-07-11T02:07:59;15.20;99.90
52517;DHT22;59374;53.210;5.726;2022-07-11T02:10:37;15.10;99.90
52517;DHT22;59374;53.210;5.726;2022-07-11T02:13:03;15.20;99.90
52517;DHT22;59374;53.210;5.726;2022-07-11T02:15:28;15.10;99.90
52517;DHT22;59374;53.210;5.726;2022-07-11T02:17:54;15.10;99.90
52517;DHT22;59374;53.210;5.726;2022-07-11T02:20:20;15.20;99.90
52517;DHT22;59374;53.210;5.726;2022-07-11T02:22:46;15.20;99.90
52517;DHT22;59374;53.210;5.726;2022-07-11T02:25:13;15.20;99.90
52517;DHT22;59374;53.210;5.726;2022-07-11T02:27:39;15.20;99.90
52517;DHT22;59374;53.210;5.726;2022-07-11T02:30:05;15.20;99.90
52517;DHT22;59374;53.210;5.726;2022-07-11T02:32:31;15.20;99.90
52517;DHT22;59374;53.210;5.726;2022-07-11T02:34:56;15.20;99.90
52517;DHT22;59374;53.210;5.726;2022-07-11T02:37:22;15.20;99.90
52517;DHT22;59374;53.210;5.726;2022-07-11T02:39:47;15.20;99.90
52517;DHT22;59374;53.210;5.726;2022-07-11T02:42:13;15.20;99.90
52517;DHT22;59374;53.210;5.726;2022-07-11T02:44:38;15.10;99.90
52517;DHT22;59374;53.210;5.726;2022-07-11T02:47:04;15.10;99.90
52517;DHT22;59374;53.210;5.726;2022-07-11T02:49:30;15.10;99.90
52517;DHT22;59374;53.210;5.726;2022-07-11T02:51:56;15.10;99.90
52517;DHT22;59374;53.210;5.726;2022-07-11T02:54:21;15.10;99.90
52517;DHT22;59374;53.210;5.726;2022-07-11T02:56:47;15.10;99.90
52517;DHT22;59374;53.210;5.726;2022-07-11T02:59:12;15.10;99.90
52517;DHT22;59374;53.210;5.726;2022-07-11T03:01:38;15.10;99.90
52517;DHT22;59374;53.210;5.726;2022-07-11T03:04:05;15.10;99.90
52517;DHT22;59374;53.210;5.726;2022-07-11T03:06:31;15.10;99.90
52517;DHT22;59374;53.210;5.726;2022-07-11T03:08:56;15.10;99.90
52517;DHT22;59374;53.210;5.726;2022-07-11T03:11:22;15.10;99.90
52517;DHT22;59374;53.210;5.726;2022-07-11T03:13:47;15.10;99.90
52517;DHT22;59374;53.210;5.726;2022-07-11T03:16:13;15.20;99.90
52517;DHT22;59374;53.210;5.726;2022-07-11T03:18:38;15.20;99.90
52517;DHT22;59374;53.210;5.726;2022-07-11T03:21:04;15.20;99.90
52517;DHT22;59374;53.210;5.726;2022-07-11T03:23:30;15.20;99.90
52517;DHT22;59374;53.210;5.726;2022-07-11T03:25:55;15.10;99.90
52517;DHT22;59374;53.210;5.726;2022-07-11T03:28:21;15.20;99.90
52517;DHT22;59374;53.210;5.726;2022-07-11T03:30:46;15.20;99.90
52517;DHT22;59374;53.210;5.726;2022-07-11T03:33:12;15.10;99.90
52517;DHT22;59374;53.210;5.726;2022-07-11T03:35:37;15.10;99.90
52517;DHT22;59374;53.210;5.726;2022-07-11T03:38:06;15.10;99.90
52517;DHT22;59374;53.210;5.726;2022-07-11T03:40:31;15.10;99.90
52517;DHT22;59374;53.210;5.726;2022-07-11T03:42:57;15.10;99.90
52517;DHT22;59374;53.210;5.726;2022-07-11T03:45:22;15.10;99.90
52517;DHT22;59374;53.210;5.726;2022-07-11T03:47:48;15.10;99.90
52517;DHT22;59374;53.210;5.726;2022-07-11T03:50:14;15.10;99.90
52517;DHT22;59374;53.210;5.726;2022-07-11T03:52:40;15.10;99.90
52517;DHT22;59374;53.210;5.726;2022-07-11T03:55:05;15.10;99.90
52517;DHT22;59374;53.210;5.726;2022-07-11T03:57:32;15.10;99.90
52517;DHT22;59374;53.210;5.726;2022-07-11T03:59:59;15.10;99.90
52517;DHT22;59374;53.210;5.726;2022-07-11T04:02:24;15.10;99.90
52517;DHT22;59374;53.210;5.726;2022-07-11T04:04:50;15.10;99.90
52517;DHT22;59374;53.210;5.726;2022-07-11T04:07:16;15.10;99.90
52517;DHT22;59374;53.210;5.726;2022-07-11T04:09:41;15.00;99.90
52517;DHT22;59374;53.210;5.726;2022-07-11T04:12:07;15.00;99.90
52517;DHT22;59374;53.210;5.726;2022-07-11T04:14:32;15.00;99.90
52517;DHT22;59374;53.210;5.726;2022-07-11T04:16:58;15.10;99.90
52517;DHT22;59374;53.210;5.726;2022-07-11T04:19:23;15.00;99.90
52517;DHT22;59374;53.210;5.726;2022-07-11T04:21:49;15.00;99.90
52517;DHT22;59374;53.210;5.726;2022-07-11T04:24:14;15.00;99.90
52517;DHT22;59374;53.210;5.726;2022-07-11T04:26:40;15.00;99.90
52517;DHT22;59374;53.210;5.726;2022-07-11T04:29:06;15.00;99.90
52517;DHT22;59374;53.210;5.726;2022-07-11T04:31:31;15.00;99.90
52517;DHT22;59374;53.210;5.726;2022-07-11T04:33:57;15.00;99.90
52517;DHT22;59374;53.210;5.726;2022-07-11T04:36:22;15.00;99.90
52517;DHT22;59374;53.210;5.726;2022-07-11T04:38:48;15.00;99.90
52517;DHT22;59374;53.210;5.726;2022-07-11T04:41:15;15.10;99.90
52517;DHT22;59374;53.210;5.726;2022-07-11T04:43:40;15.10;99.90
52517;DHT22;59374;53.210;5.726;2022-07-11T04:46:06;15.20;99.90
52517;DHT22;59374;53.210;5.726;2022-07-11T04:48:31;15.20;99.90
52517;DHT22;59374;53.210;5.726;2022-07-11T04:50:57;15.20;99.90
52517;DHT22;59374;53.210;5.726;2022-07-11T04:53:25;15.30;99.90
52517;DHT22;59374;53.210;5.726;2022-07-11T04:55:51;15.30;99.90
52517;DHT22;59374;53.210;5.726;2022-07-11T04:58:16;15.30;99.90
52517;DHT22;59374;53.210;5.726;2022-07-11T05:00:42;15.40;99.90
52517;DHT22;59374;53.210;5.726;2022-07-11T05:03:07;15.40;99.90
52517;DHT22;59374;53.210;5.726;2022-07-11T05:05:33;15.40;99.90
52517;DHT22;59374;53.210;5.726;2022-07-11T05:07:59;15.40;99.90
52517;DHT22;59374;53.210;5.726;2022-07-11T05:10:24;15.30;99.90
52517;DHT22;59374;53.210;5.726;2022-07-11T05:12:50;15.20;99.90
52517;DHT22;59374;53.210;5.726;2022-07-11T05:15:15;15.20;99.90
52517;DHT22;59374;53.210;5.726;2022-07-11T05:17:41;15.20;99.90
52517;DHT22;59374;53.210;5.726;2022-07-11T05:20:06;15.30;99.90
52517;DHT22;59374;53.210;5.726;2022-07-11T05:22:32;15.30;99.90
52517;DHT22;59374;53.210;5.726;2022-07-11T05:24:58;15.30;99.90
52517;DHT22;59374;53.210;5.726;2022-07-11T05:27:23;15.40;99.90
52517;DHT22;59374;53.210;5.726;2022-07-11T05:29:49;15.50;99.90
52517;DHT22;59374;53.210;5.726;2022-07-11T05:32:14;15.60;99.90
52517;DHT22;59374;53.210;5.726;2022-07-11T05:34:40;15.60;99.90
52517;DHT22;59374;53.210;5.726;2022-07-11T05:37:06;15.50;99.90
52517;DHT22;59374;53.210;5.726;2022-07-11T05:39:32;15.50;99.90
52517;DHT22;59374;53.210;5.726;2022-07-11T05:41:57;15.60;99.90
52517;DHT22;59374;53.210;5.726;2022-07-11T05:44:23;15.60;99.90
52517;DHT22;59374;53.210;5.726;2022-07-11T05:46:48;15.70;99.90
52517;DHT22;59374;53.210;5.726;2022-07-11T05:49:14;15.70;99.90
52517;DHT22;59374;53.210;5.726;2022-07-11T05:51:39;15.80;99.90
52517;DHT22;59374;53.210;5.726;2022-07-11T05:54:05;15.80;99.90
52517;DHT22;59374;53.210;5.726;2022-07-11T05:56:30;15.90;99.90
52517;DHT22;59374;53.210;5.726;2022-07-11T05:58:56;15.80;99.90
52517;DHT22;59374;53.210;5.726;2022-07-11T06:01:22;15.90;99.90
52517;DHT22;59374;53.210;5.726;2022-07-11T06:03:48;15.90;99.90
52517;DHT22;59374;53.210;5.726;2022-07-11T06:06:14;16.00;99.90
52517;DHT22;59374;53.210;5.726;2022-07-11T06:08:39;16.10;99.90
52517;DHT22;59374;53.210;5.726;2022-07-11T06:11:08;16.10;99.90
52517;DHT22;59374;53.210;5.726;2022-07-11T06:13:36;16.20;99.90
52517;DHT22;59374;53.210;5.726;2022-07-11T06:16:03;16.30;99.90
52517;DHT22;59374;53.210;5.726;2022-07-11T06:18:29;16.40;99.90
52517;DHT22;59374;53.210;5.726;2022-07-11T06:20:54;16.50;99.90
52517;DHT22;59374;53.210;5.726;2022-07-11T06:23:20;16.30;99.90
52517;DHT22;59374;53.210;5.726;2022-07-11T06:25:45;16.20;99.90
52517;DHT22;59374;53.210;5.726;2022-07-11T06:28:11;16.00;99.90
52517;DHT22;59374;53.210;5.726;2022-07-11T06:30:36;16.00;99.90
52517;DHT22;59374;53.210;5.726;2022-07-11T06:33:02;15.80;99.90
52517;DHT22;59374;53.210;5.726;2022-07-11T06:35:28;15.80;99.90
52517;DHT22;59374;53.210;5.726;2022-07-11T06:37:54;15.90;99.90
52517;DHT22;59374;53.210;5.726;2022-07-11T06:40:21;16.00;99.90
52517;DHT22;59374;53.210;5.726;2022-07-11T06:42:48;16.10;99.90
52517;DHT22;59374;53.210;5.726;2022-07-11T06:45:14;16.20;99.90
52517;DHT22;59374;53.210;5.726;2022-07-11T06:47:39;16.40;99.90
52517;DHT22;59374;53.210;5.726;2022-07-11T06:50:05;16.40;99.90
52517;DHT22;59374;53.210;5.726;2022-07-11T06:52:31;16.50;99.90
52517;DHT22;59374;53.210;5.726;2022-07-11T06:54:56;16.70;99.90
52517;DHT22;59374;53.210;5.726;2022-07-11T06:57:23;16.70;99.90
52517;DHT22;59374;53.210;5.726;2022-07-11T06:59:49;16.80;99.90
52517;DHT22;59374;53.210;5.726;2022-07-11T07:02:14;17.00;99.90
52517;DHT22;59374;53.210;5.726;2022-07-11T07:04:40;17.10;99.90
52517;DHT22;59374;53.210;5.726;2022-07-11T07:07:05;17.00;99.90
52517;DHT22;59374;53.210;5.726;2022-07-11T07:09:31;17.10;99.90
52517;DHT22;59374;53.210;5.726;2022-07-11T07:11:56;17.10;99.90
52517;DHT22;59374;53.210;5.726;2022-07-11T07:14:22;17.20;99.90
52517;DHT22;59374;53.210;5.726;2022-07-11T07:16:48;17.40;99.90
52517;DHT22;59374;53.210;5.726;2022-07-11T07:19:13;17.50;99.90
52517;DHT22;59374;53.210;5.726;2022-07-11T07:21:39;17.60;99.90
52517;DHT22;59374;53.210;5.726;2022-07-11T07:24:05;17.60;99.90
52517;DHT22;59374;53.210;5.726;2022-07-11T07:26:31;17.70;99.90
52517;DHT22;59374;53.210;5.726;2022-07-11T07:28:56;17.90;99.90
52517;DHT22;59374;53.210;5.726;2022-07-11T07:31:22;17.80;99.90
52517;DHT22;59374;53.210;5.726;2022-07-11T07:33:48;18.00;99.90
52517;DHT22;59374;53.210;5.726;2022-07-11T07:36:14;18.00;99.90
52517;DHT22;59374;53.210;5.726;2022-07-11T07:38:41;17.90;99.90
52517;DHT22;59374;53.210;5.726;2022-07-11T07:41:12;18.00;99.90
52517;DHT22;59374;53.210;5.726;2022-07-11T07:43:37;18.10;99.90
52517;DHT22;59374;53.210;5.726;2022-07-11T07:46:03;18.10;99.90
52517;DHT22;59374;53.210;5.726;2022-07-11T07:48:30;18.00;99.90
52517;DHT22;59374;53.210;5.726;2022-07-11T07:50:55;17.90;99.90
52517;DHT22;59374;53.210;5.726;2022-07-11T07:53:21;18.00;99.90
52517;DHT22;59374;53.210;5.726;2022-07-11T07:55:46;18.10;99.90
52517;DHT22;59374;53.210;5.726;2022-07-11T07:58:12;18.20;99.90
52517;DHT22;59374;53.210;5.726;2022-07-11T08:00:37;18.30;99.90
52517;DHT22;59374;53.210;5.726;2022-07-11T08:03:22;18.40;99.90
52517;DHT22;59374;53.210;5.726;2022-07-11T08:05:47;18.50;99.90
52517;DHT22;59374;53.210;5.726;2022-07-11T08:08:13;18.50;99.90
52517;DHT22;59374;53.210;5.726;2022-07-11T08:10:38;18.40;99.90
52517;DHT22;59374;53.210;5.726;2022-07-11T08:13:04;18.40;99.90
52517;DHT22;59374;53.210;5.726;2022-07-11T08:15:30;18.70;99.90
52517;DHT22;59374;53.210;5.726;2022-07-11T08:17:55;19.00;99.90
52517;DHT22;59374;53.210;5.726;2022-07-11T08:20:21;19.20;99.90
52517;DHT22;59374;53.210;5.726;2022-07-11T08:22:46;19.10;99.90
52517;DHT22;59374;53.210;5.726;2022-07-11T08:25:12;18.60;99.90
52517;DHT22;59374;53.210;5.726;2022-07-11T08:27:37;18.30;99.90
52517;DHT22;59374;53.210;5.726;2022-07-11T08:30:06;18.20;99.90
52517;DHT22;59374;53.210;5.726;2022-07-11T08:32:33;18.20;99.90
52517;DHT22;59374;53.210;5.726;2022-07-11T08:34:58;18.50;99.90
52517;DHT22;59374;53.210;5.726;2022-07-11T08:37:24;18.80;99.90
52517;DHT22;59374;53.210;5.726;2022-07-11T08:39:49;18.90;99.90
52517;DHT22;59374;53.210;5.726;2022-07-11T08:42:18;18.80;99.90
52517;DHT22;59374;53.210;5.726;2022-07-11T08:44:44;18.70;99.90
52517;DHT22;59374;53.210;5.726;2022-07-11T08:47:09;18.70;99.90
52517;DHT22;59374;53.210;5.726;2022-07-11T08:49:35;18.80;99.90
52517;DHT22;59374;53.210;5.726;2022-07-11T08:52:00;19.00;99.90
52517;DHT22;59374;53.210;5.726;2022-07-11T08:54:26;19.10;99.90
52517;DHT22;59374;53.210;5.726;2022-07-11T08:56:52;18.90;99.90
52517;DHT22;59374;53.210;5.726;2022-07-11T08:59:19;18.90;99.90
52517;DHT22;59374;53.210;5.726;2022-07-11T09:01:46;18.80;99.90
52517;DHT22;59374;53.210;5.726;2022-07-11T09:04:14;18.90;99.90
52517;DHT22;59374;53.210;5.726;2022-07-11T09:06:40;19.00;99.90
52517;DHT22;59374;53.210;5.726;2022-07-11T09:09:06;19.10;99.90
52517;DHT22;59374;53.210;5.726;2022-07-11T09:11:51;19.30;99.90
52517;DHT22;59374;53.210;5.726;2022-07-11T09:14:27;19.20;99.90
52517;DHT22;59374;53.210;5.726;2022-07-11T09:16:57;19.40;99.90
52517;DHT22;59374;53.210;5.726;2022-07-11T09:19:24;19.40;99.90
52517;DHT22;59374;53.210;5.726;2022-07-11T09:21:57;19.10;99.90
52517;DHT22;59374;53.210;5.726;2022-07-11T09:27:42;18.70;99.90
52517;DHT22;59374;53.210;5.726;2022-07-11T09:30:21;18.40;99.90
52517;DHT22;59374;53.210;5.726;2022-07-11T09:35:19;18.90;99.90
52517;DHT22;59374;53.210;5.726;2022-07-11T09:37:45;19.30;99.90
52517;DHT22;59374;53.210;5.726;2022-07-11T09:40:13;19.70;99.90
52517;DHT22;59374;53.210;5.726;2022-07-11T09:42:46;19.70;99.90
52517;DHT22;59374;53.210;5.726;2022-07-11T09:45:12;19.60;99.90
52517;DHT22;59374;53.210;5.726;2022-07-11T09:47:47;19.30;99.90
52517;DHT22;59374;53.210;5.726;2022-07-11T09:50:13;19.40;99.90
52517;DHT22;59374;53.210;5.726;2022-07-11T09:52:42;19.50;99.90
52517;DHT22;59374;53.210;5.726;2022-07-11T09:55:09;19.60;99.90
52517;DHT22;59374;53.210;5.726;2022-07-11T09:57:38;19.60;99.90
52517;DHT22;59374;53.210;5.726;2022-07-11T10:00:04;19.70;99.90
52517;DHT22;59374;53.210;5.726;2022-07-11T10:02:31;19.90;99.90
52517;DHT22;59374;53.210;5.726;2022-07-11T10:04:57;20.00;99.90
52517;DHT22;59374;53.210;5.726;2022-07-11T10:07:23;20.20;99.90
52517;DHT22;59374;53.210;5.726;2022-07-11T10:09:49;20.20;99.90
52517;DHT22;59374;53.210;5.726;2022-07-11T10:12:15;20.60;99.90
52517;DHT22;59374;53.210;5.726;2022-07-11T10:14:41;20.60;99.90
52517;DHT22;59374;53.210;5.726;2022-07-11T10:17:12;20.90;99.90
52517;DHT22;59374;53.210;5.726;2022-07-11T10:22:17;21.00;99.90
52517;DHT22;59374;53.210;5.726;2022-07-11T10:24:48;21.10;99.90
52517;DHT22;59374;53.210;5.726;2022-07-11T10:27:22;21.00;99.90
52517;DHT22;59374;53.210;5.726;2022-07-11T10:29:51;20.90;99.90
52517;DHT22;59374;53.210;5.726;2022-07-11T10:32:17;20.90;99.90
52517;DHT22;59374;53.210;5.726;2022-07-11T10:34:43;21.00;99.90
52517;DHT22;59374;53.210;5.726;2022-07-11T10:37:08;20.80;99.90
52517;DHT22;59374;53.210;5.726;2022-07-11T10:39:35;20.40;99.90
52517;DHT22;59374;53.210;5.726;2022-07-11T10:42:02;20.50;99.90
52517;DHT22;59374;53.210;5.726;2022-07-11T10:44:28;20.50;99.90
52517;DHT22;59374;53.210;5.726;2022-07-11T10:50:03;20.40;99.90
52517;DHT22;59374;53.210;5.726;2022-07-11T10:52:33;20.50;99.90
52517;DHT22;59374;53.210;5.726;2022-07-11T10:57:35;20.40;99.90
52517;DHT22;59374;53.210;5.726;2022-07-11T11:00:06;20.40;99.90
52517;DHT22;59374;53.210;5.726;2022-07-11T11:03:18;20.40;99.90
52517;DHT22;59374;53.210;5.726;2022-07-11T11:08:03;20.30;99.90
52517;DHT22;59374;53.210;5.726;2022-07-11T11:10:49;20.40;99.90
52517;DHT22;59374;53.210;5.726;2022-07-11T11:13:14;20.50;99.90
52517;DHT22;59374;53.210;5.726;2022-07-11T11:23:25;20.70;99.90
52517;DHT22;59374;53.210;5.726;2022-07-11T11:25:52;20.80;99.90
52517;DHT22;59374;53.210;5.726;2022-07-11T11:28:21;21.00;99.90
52517;DHT22;59374;53.210;5.726;2022-07-11T11:30:53;21.20;99.90
52517;DHT22;59374;53.210;5.726;2022-07-11T11:33:19;21.20;99.90
52517;DHT22;59374;53.210;5.726;2022-07-11T11:35:45;21.10;99.90
52517;DHT22;59374;53.210;5.726;2022-07-11T11:38:10;21.00;99.90
52517;DHT22;59374;53.210;5.726;2022-07-11T11:40:36;20.80;99.90
52517;DHT22;59374;53.210;5.726;2022-07-11T11:43:17;20.90;99.90
52517;DHT22;59374;53.210;5.726;2022-07-11T11:45:46;21.10;99.90
52517;DHT22;59374;53.210;5.726;2022-07-11T11:48:25;21.30;99.90
52517;DHT22;59374;53.210;5.726;2022-07-11T11:50:50;21.60;99.90
52517;DHT22;59374;53.210;5.726;2022-07-11T11:53:16;21.70;99.90
52517;DHT22;59374;53.210;5.726;2022-07-11T11:55:42;21.80;99.90
52517;DHT22;59374;53.210;5.726;2022-07-11T11:58:07;21.80;99.90
52517;DHT22;59374;53.210;5.726;2022-07-11T12:00:33;22.00;99.90
52517;DHT22;59374;53.210;5.726;2022-07-11T12:02:58;21.90;99.90
52517;DHT22;59374;53.210;5.726;2022-07-11T12:05:24;21.70;99.90
52517;DHT22;59374;53.210;5.726;2022-07-11T12:07:50;21.60;99.90
52517;DHT22;59374;53.210;5.726;2022-07-11T12:10:15;21.40;99.90
52517;DHT22;59374;53.210;5.726;2022-07-11T12:12:41;21.20;99.90
52517;DHT22;59374;53.210;5.726;2022-07-11T12:17:52;21.10;99.90
52517;DHT22;59374;53.210;5.726;2022-07-11T12:20:40;21.00;99.90
52517;DHT22;59374;53.210;5.726;2022-07-11T12:23:07;21.20;99.90
52517;DHT22;59374;53.210;5.726;2022-07-11T12:25:33;21.10;99.90
52517;DHT22;59374;53.210;5.726;2022-07-11T12:27:59;21.10;99.90
52517;DHT22;59374;53.210;5.726;2022-07-11T12:30:24;21.10;99.90
52517;DHT22;59374;53.210;5.726;2022-07-11T12:33:03;21.10;99.90
52517;DHT22;59374;53.210;5.726;2022-07-11T12:35:29;21.20;99.90
52517;DHT22;59374;53.210;5.726;2022-07-11T12:37:54;21.30;99.90
52517;DHT22;59374;53.210;5.726;2022-07-11T12:40:20;21.10;99.90
52517;DHT22;59374;53.210;5.726;2022-07-11T12:42:46;21.00;99.90
52517;DHT22;59374;53.210;5.726;2022-07-11T12:45:11;20.90;99.90
52517;DHT22;59374;53.210;5.726;2022-07-11T12:47:38;20.90;99.90
52517;DHT22;59374;53.210;5.726;2022-07-11T12:50:26;20.90;99.90
52517;DHT22;59374;53.210;5.726;2022-07-11T12:52:53;21.20;99.90
52517;DHT22;59374;53.210;5.726;2022-07-11T12:55:20;21.30;99.90
52517;DHT22;59374;53.210;5.726;2022-07-11T13:00:31;21.20;99.90
52517;DHT22;59374;53.210;5.726;2022-07-11T13:02:57;21.00;99.90
52517;DHT22;59374;53.210;5.726;2022-07-11T13:05:23;21.10;99.90
52517;DHT22;59374;53.210;5.726;2022-07-11T13:07:48;21.40;99.90
52517;DHT22;59374;53.210;5.726;2022-07-11T13:10:32;21.60;99.90
52517;DHT22;59374;53.210;5.726;2022-07-11T13:13:17;21.60;99.90
52517;DHT22;59374;53.210;5.726;2022-07-11T13:15:43;21.40;99.90
52517;DHT22;59374;53.210;5.726;2022-07-11T13:18:09;21.50;99.90
52517;DHT22;59374;53.210;5.726;2022-07-11T13:20:35;21.30;99.90
52517;DHT22;59374;53.210;5.726;2022-07-11T13:23:01;21.30;99.90
52517;DHT22;59374;53.210;5.726;2022-07-11T13:25:26;21.50;99.90
52517;DHT22;59374;53.210;5.726;2022-07-11T13:27:52;21.50;99.90
52517;DHT22;59374;53.210;5.726;2022-07-11T13:30:19;21.40;99.90
52517;DHT22;59374;53.210;5.726;2022-07-11T13:32:49;21.20;99.90
52517;DHT22;59374;53.210;5.726;2022-07-11T13:35:16;21.20;99.90
52517;DHT22;59374;53.210;5.726;2022-07-11T13:37:41;21.10;99.90
52517;DHT22;59374;53.210;5.726;2022-07-11T13:40:08;21.20;99.90
52517;DHT22;59374;53.210;5.726;2022-07-11T13:42:37;21.00;99.90
52517;DHT22;59374;53.210;5.726;2022-07-11T13:45:03;20.90;99.90
52517;DHT22;59374;53.210;5.726;2022-07-11T13:47:29;20.70;99.90
52517;DHT22;59374;53.210;5.726;2022-07-11T13:49:55;20.80;99.90
52517;DHT22;59374;53.210;5.726;2022-07-11T13:52:21;20.50;99.90
52517;DHT22;59374;53.210;5.726;2022-07-11T13:54:47;20.50;99.90
52517;DHT22;59374;53.210;5.726;2022-07-11T13:57:12;20.50;99.90
52517;DHT22;59374;53.210;5.726;2022-07-11T13:59:38;20.70;99.90
52517;DHT22;59374;53.210;5.726;2022-07-11T14:02:05;20.60;99.90
52517;DHT22;59374;53.210;5.726;2022-07-11T14:04:31;20.70;99.90
52517;DHT22;59374;53.210;5.726;2022-07-11T14:06:56;20.80;99.90
52517;DHT22;59374;53.210;5.726;2022-07-11T14:09:22;20.90;99.90
52517;DHT22;59374;53.210;5.726;2022-07-11T14:11:47;20.70;99.90
52517;DHT22;59374;53.210;5.726;2022-07-11T14:14:13;20.70;99.90
52517;DHT22;59374;53.210;5.726;2022-07-11T14:16:38;20.70;99.90
52517;DHT22;59374;53.210;5.726;2022-07-11T14:19:04;20.50;99.90
52517;DHT22;59374;53.210;5.726;2022-07-11T14:21:33;20.50;99.90
52517;DHT22;59374;53.210;5.726;2022-07-11T14:23:58;20.50;99.90
52517;DHT22;59374;53.210;5.726;2022-07-11T14:26:24;20.50;99.90
52517;DHT22;59374;53.210;5.726;2022-07-11T14:28:49;20.50;99.90
52517;DHT22;59374;53.210;5.726;2022-07-11T14:31:15;20.40;99.90
52517;DHT22;59374;53.210;5.726;2022-07-11T14:33:41;20.40;99.90
52517;DHT22;59374;53.210;5.726;2022-07-11T14:36:07;20.10;99.90
52517;DHT22;59374;53.210;5.726;2022-07-11T14:38:32;20.00;99.90
52517;DHT22;59374;53.210;5.726;2022-07-11T14:40:59;20.00;99.90
52517;DHT22;59374;53.210;5.726;2022-07-11T14:43:25;19.90;99.90
52517;DHT22;59374;53.210;5.726;2022-07-11T14:45:52;19.90;99.90
52517;DHT22;59374;53.210;5.726;2022-07-11T14:48:17;19.90;99.90
52517;DHT22;59374;53.210;5.726;2022-07-11T14:50:43;19.90;99.90
52517;DHT22;59374;53.210;5.726;2022-07-11T14:53:09;20.00;99.90
52517;DHT22;59374;53.210;5.726;2022-07-11T14:55:34;19.90;99.90
52517;DHT22;59374;53.210;5.726;2022-07-11T14:58:00;19.90;99.90
52517;DHT22;59374;53.210;5.726;2022-07-11T15:00:25;20.00;99.90
52517;DHT22;59374;53.210;5.726;2022-07-11T15:02:51;20.10;99.90
52517;DHT22;59374;53.210;5.726;2022-07-11T15:05:35;20.10;99.90
52517;DHT22;59374;53.210;5.726;2022-07-11T15:08:00;20.20;99.90
52517;DHT22;59374;53.210;5.726;2022-07-11T15:10:44;20.30;99.90
52517;DHT22;59374;53.210;5.726;2022-07-11T15:13:28;20.40;99.90
52517;DHT22;59374;53.210;5.726;2022-07-11T15:15:54;20.30;99.90
52517;DHT22;59374;53.210;5.726;2022-07-11T15:18:20;20.10;99.90
52517;DHT22;59374;53.210;5.726;2022-07-11T15:20:46;20.10;99.90
52517;DHT22;59374;53.210;5.726;2022-07-11T15:23:12;20.00;99.90
52517;DHT22;59374;53.210;5.726;2022-07-11T15:25:38;20.00;99.90
52517;DHT22;59374;53.210;5.726;2022-07-11T15:28:03;19.90;99.90
52517;DHT22;59374;53.210;5.726;2022-07-11T15:30:29;19.90;99.90
52517;DHT22;59374;53.210;5.726;2022-07-11T15:32:55;19.90;99.90
52517;DHT22;59374;53.210;5.726;2022-07-11T15:35:20;20.10;99.90
52517;DHT22;59374;53.210;5.726;2022-07-11T15:37:46;20.00;99.90
52517;DHT22;59374;53.210;5.726;2022-07-11T15:40:11;20.30;99.90
52517;DHT22;59374;53.210;5.726;2022-07-11T15:42:37;20.50;99.90
52517;DHT22;59374;53.210;5.726;2022-07-11T15:45:03;20.20;99.90
52517;DHT22;59374;53.210;5.726;2022-07-11T15:47:29;20.20;99.90
52517;DHT22;59374;53.210;5.726;2022-07-11T15:49:55;20.40;99.90
52517;DHT22;59374;53.210;5.726;2022-07-11T15:52:20;20.80;99.90
52517;DHT22;59374;53.210;5.726;2022-07-11T15:54:46;21.50;99.90
52517;DHT22;59374;53.210;5.726;2022-07-11T15:57:11;21.80;99.90